Time;durP1;ratioP1;P1;durP2;ratioP2;P2;SDS_P1;SDS_P2;PMS_P1;PMS_P2;Temp;Humidity;BMP_temperature;BMP_pressure;BME280_temperature;BME280_humidity;BME280_pressure;Samples;Min_cycle;Max_cycle;Signal;HPM_P1;HPM_P2
2022/10/30 00:00:12;;;;;;;63.97;40.15;;;11.20;99.90;;;;;;5041177;28;20025;-77
2022/10/30 00:02:38;;;;;;;74.10;41.65;;;11.30;99.90;;;;;;5042567;28;20034;-70
2022/10/30 00:05:04;;;;;;;58.15;39.40;;;11.30;99.90;;;;;;5046747;28;20029;-71
2022/10/30 00:07:30;;;;;;;63.35;41.03;;;11.20;99.90;;;;;;5033282;28;20033;-70
2022/10/30 00:09:56;;;;;;;105.90;46.30;;;11.20;99.90;;;;;;5041870;28;20021;-73
2022/10/30 00:12:23;;;;;;;77.20;43.03;;;11.20;99.90;;;;;;5034205;28;20029;-71
2022/10/30 00:14:48;;;;;;;68.68;39.83;;;11.10;99.90;;;;;;5037234;28;20104;-71
2022/10/30 00:17:14;;;;;;;63.33;41.85;;;11.10;99.90;;;;;;5052751;28;20025;-74
2022/10/30 00:19:40;;;;;;;58.28;38.97;;;11.10;99.90;;;;;;5039389;28;20025;-70
2022/10/30 00:22:06;;;;;;;65.18;40.53;;;11.30;99.90;;;;;;5046112;28;20069;-71
2022/10/30 00:24:32;;;;;;;159.05;55.58;;;11.20;99.90;;;;;;5030947;28;20493;-70
2022/10/30 00:26:57;;;;;;;93.82;43.03;;;11.20;99.90;;;;;;5046540;28;20707;-71
2022/10/30 00:29:25;;;;;;;136.50;54.55;;;11.20;99.90;;;;;;5036829;28;20021;-70
2022/10/30 00:31:52;;;;;;;127.00;52.83;;;11.10;99.90;;;;;;5050765;28;20087;-70
2022/10/30 00:34:18;;;;;;;83.18;45.40;;;11.20;99.90;;;;;;5045129;28;20037;-77
2022/10/30 00:36:44;;;;;;;93.70;48.80;;;11.10;99.90;;;;;;5035917;28;20029;-71
2022/10/30 00:39:20;;;;;;;81.72;43.63;;;11.20;99.90;;;;;;5034273;28;20029;-72
2022/10/30 00:41:45;;;;;;;88.80;44.22;;;11.20;99.90;;;;;;5034497;28;20049;-71
2022/10/30 00:44:51;;;;;;;63.30;43.53;;;11.20;99.90;;;;;;5051178;28;20108;-70
2022/10/30 00:47:34;;;;;;;67.13;46.13;;;11.30;99.90;;;;;;4981170;28;20031;-70
2022/10/30 00:50:08;;;;;;;;;;;11.30;99.90;;;;;;4988893;28;20614;-70
2022/10/30 00:52:47;;;;;;;77.13;46.38;;;11.30;99.90;;;;;;4990790;28;20487;-71
2022/10/30 00:55:19;;;;;;;85.75;46.95;;;11.30;99.90;;;;;;4974309;28;20042;-71
2022/10/30 00:57:46;;;;;;;95.60;50.38;;;11.30;99.90;;;;;;4990086;28;20559;-71
2022/10/30 01:00:14;;;;;;;87.10;49.60;;;11.20;99.90;;;;;;4971950;28;20041;-71
2022/10/30 01:02:50;;;;;;;85.82;49.03;;;11.20;99.90;;;;;;4982786;28;20050;-72
2022/10/30 01:05:20;;;;;;;73.07;47.50;;;11.20;99.90;;;;;;4969575;28;20034;-69
2022/10/30 01:07:46;;;;;;;97.00;54.58;;;11.10;99.90;;;;;;4990444;28;20624;-69
2022/10/30 01:10:13;;;;;;;134.70;67.57;;;11.10;99.90;;;;;;4990396;28;20045;-71
2022/10/30 01:12:40;;;;;;;71.68;50.80;;;11.00;99.90;;;;;;4990530;28;20129;-75
2022/10/30 01:15:06;;;;;;;118.65;61.63;;;11.00;99.90;;;;;;4990514;28;20145;-70
2022/10/30 01:17:58;;;;;;;112.97;56.30;;;11.00;99.90;;;;;;5009228;28;20029;-70
2022/10/30 01:21:03;;;;;;;95.85;52.22;;;10.90;99.90;;;;;;4974279;28;20046;-69
2022/10/30 01:23:45;;;;;;;122.38;53.10;;;11.00;99.90;;;;;;4951293;28;20532;-70
2022/10/30 01:26:14;;;;;;;99.05;55.47;;;10.90;99.90;;;;;;4951976;28;20079;-69
2022/10/30 01:28:58;;;;;;;156.60;73.60;;;10.90;99.90;;;;;;4936555;28;20046;-70
2022/10/30 01:31:45;;;;;;;89.63;53.30;;;10.80;99.90;;;;;;4969648;28;20058;-70
2022/10/30 01:34:40;;;;;;;80.88;53.88;;;10.80;99.90;;;;;;4963882;28;20026;-70
2022/10/30 01:37:14;;;;;;;87.20;53.88;;;10.80;99.90;;;;;;4933629;29;20940;-69
2022/10/30 01:39:43;;;;;;;74.75;51.30;;;10.80;99.90;;;;;;4934063;29;20035;-71
2022/10/30 01:42:47;;;;;;;120.75;64.75;;;10.70;99.90;;;;;;4949687;29;20079;-69
2022/10/30 01:45:22;;;;;;;99.60;52.53;;;10.60;99.90;;;;;;4933860;29;20035;-69
2022/10/30 01:48:09;;;;;;;105.45;55.65;;;10.60;99.90;;;;;;4950106;28;20050;-73
2022/10/30 01:51:07;;;;;;;83.85;49.13;;;10.60;99.90;;;;;;4934234;29;20039;-69
2022/10/30 01:53:39;;;;;;;91.82;51.60;;;10.70;99.90;;;;;;4914744;29;20094;-70
2022/10/30 01:56:09;;;;;;;78.28;51.85;;;10.60;99.90;;;;;;4932021;29;20040;-70
2022/10/30 01:58:53;;;;;;;88.43;55.60;;;10.60;99.90;;;;;;4954293;28;20047;-69
2022/10/30 02:01:21;;;;;;;79.70;49.40;;;10.50;99.90;;;;;;4972479;28;20504;-70
2022/10/30 02:03:48;;;;;;;87.40;50.95;;;10.50;99.90;;;;;;4956459;28;20035;-70
2022/10/30 02:06:13;;;;;;;90.32;50.47;;;10.50;99.90;;;;;;4953296;28;20086;-70
2022/10/30 02:08:40;;;;;;;113.93;56.42;;;10.60;99.90;;;;;;4956361;28;20027;-70
2022/10/30 02:11:06;;;;;;;89.38;50.67;;;10.60;99.90;;;;;;4955997;28;20042;-70
2022/10/30 02:13:37;;;;;;;74.38;51.30;;;10.70;99.90;;;;;;4961327;28;20459;-71
2022/10/30 02:16:03;;;;;;;74.47;51.70;;;10.70;99.90;;;;;;4975747;28;20037;-70
2022/10/30 02:18:29;;;;;;;85.22;55.45;;;10.80;99.90;;;;;;4975522;28;20039;-72
2022/10/30 02:20:55;;;;;;;88.00;58.85;;;10.80;99.90;;;;;;4992007;28;20057;-70
2022/10/30 02:23:21;;;;;;;89.30;56.63;;;10.80;99.90;;;;;;4975351;28;20385;-70
2022/10/30 02:25:48;;;;;;;104.13;63.17;;;10.80;99.90;;;;;;4975629;28;20030;-72
2022/10/30 02:28:14;;;;;;;96.10;65.47;;;10.80;99.90;;;;;;4975513;28;20037;-71
2022/10/30 02:30:42;;;;;;;96.10;62.35;;;10.80;99.90;;;;;;4994555;28;20034;-70
2022/10/30 02:33:09;;;;;;;95.57;63.45;;;10.90;99.90;;;;;;5012235;28;20041;-71
2022/10/30 02:35:35;;;;;;;93.88;62.20;;;11.00;99.90;;;;;;5029237;28;20398;-70
2022/10/30 02:38:02;;;;;;;165.73;72.63;;;11.00;99.90;;;;;;5014308;28;20022;-70
2022/10/30 02:40:28;;;;;;;116.88;70.25;;;10.90;99.90;;;;;;5028368;28;20459;-69
2022/10/30 02:42:55;;;;;;;137.55;70.68;;;10.90;99.90;;;;;;5028799;28;20105;-70
2022/10/30 02:45:21;;;;;;;300.10;106.35;;;10.90;99.90;;;;;;5013400;28;20121;-71
2022/10/30 02:47:47;;;;;;;131.52;72.72;;;10.90;99.90;;;;;;5012134;28;20054;-69
2022/10/30 02:50:13;;;;;;;125.75;74.25;;;10.90;99.90;;;;;;5028452;28;20438;-70
2022/10/30 02:52:39;;;;;;;129.85;72.00;;;10.90;99.90;;;;;;5028499;28;20072;-69
2022/10/30 02:55:07;;;;;;;557.13;145.82;;;10.90;99.90;;;;;;5013285;28;20030;-70
2022/10/30 02:57:34;;;;;;;215.45;84.10;;;10.80;99.90;;;;;;5028122;28;20022;-70
2022/10/30 03:00:00;;;;;;;146.00;71.80;;;10.50;99.90;;;;;;5012917;28;20486;-70
2022/10/30 03:02:26;;;;;;;103.63;63.13;;;10.60;99.90;;;;;;5012027;28;20025;-71
2022/10/30 03:04:52;;;;;;;97.68;62.83;;;10.70;99.90;;;;;;5014686;28;20096;-71
2022/10/30 03:07:17;;;;;;;112.60;61.72;;;10.80;99.90;;;;;;5027037;28;20022;-71
2022/10/30 03:09:43;;;;;;;88.40;59.42;;;10.70;99.90;;;;;;5012575;28;20694;-70
2022/10/30 03:12:09;;;;;;;101.93;61.88;;;10.80;99.90;;;;;;5027889;28;20410;-70
2022/10/30 03:14:35;;;;;;;87.75;58.05;;;10.80;99.90;;;;;;5027993;28;20029;-69
2022/10/30 03:17:02;;;;;;;97.68;58.47;;;10.90;99.90;;;;;;5011765;28;20105;-70
2022/10/30 03:19:28;;;;;;;89.47;55.50;;;10.90;99.90;;;;;;5012771;28;20113;-70
2022/10/30 03:21:54;;;;;;;111.68;60.22;;;11.00;99.90;;;;;;5011260;28;20503;-70
2022/10/30 03:24:20;;;;;;;257.27;86.97;;;10.90;99.90;;;;;;5012479;28;20052;-70
2022/10/30 03:26:46;;;;;;;103.55;58.67;;;10.70;99.90;;;;;;5012674;28;20479;-71
2022/10/30 03:29:12;;;;;;;103.22;57.83;;;10.80;99.90;;;;;;5027586;28;20815;-69
2022/10/30 03:31:38;;;;;;;82.80;55.10;;;10.90;99.90;;;;;;5010682;28;20121;-70
2022/10/30 03:34:23;;;;;;;84.82;55.22;;;10.90;99.90;;;;;;5027705;28;20034;-70
2022/10/30 03:36:49;;;;;;;91.25;56.55;;;11.00;99.90;;;;;;5027959;28;20026;-70
2022/10/30 03:39:15;;;;;;;84.50;57.83;;;10.90;99.90;;;;;;5012096;28;20022;-70
2022/10/30 03:41:43;;;;;;;79.00;55.58;;;10.90;99.90;;;;;;5010888;28;20042;-70
2022/10/30 03:44:09;;;;;;;85.90;57.20;;;11.00;99.90;;;;;;5012202;28;20022;-70
2022/10/30 03:46:35;;;;;;;80.65;52.05;;;11.00;99.90;;;;;;5026854;28;20044;-71
2022/10/30 03:49:15;;;;;;;103.43;58.92;;;11.00;99.90;;;;;;4996290;28;20108;-70
2022/10/30 03:51:41;;;;;;;106.20;57.83;;;10.90;99.90;;;;;;5010863;28;20046;-70
2022/10/30 03:54:07;;;;;;;187.15;78.40;;;10.80;99.90;;;;;;5010928;28;20021;-69
2022/10/30 03:56:33;;;;;;;107.10;60.92;;;10.60;99.90;;;;;;5010585;28;20026;-70
2022/10/30 03:59:00;;;;;;;100.38;60.30;;;10.70;99.90;;;;;;5010695;28;20029;-71
2022/10/30 04:01:27;;;;;;;127.07;65.95;;;10.70;99.90;;;;;;5037680;28;20038;-70
2022/10/30 04:03:55;;;;;;;111.55;59.53;;;10.50;99.90;;;;;;5029752;28;20029;-71
2022/10/30 04:06:23;;;;;;;101.15;61.60;;;10.60;99.90;;;;;;5027220;28;20037;-70
2022/10/30 04:08:49;;;;;;;93.50;60.08;;;10.60;99.90;;;;;;5012916;28;20018;-70
2022/10/30 04:11:15;;;;;;;87.15;56.50;;;10.60;99.90;;;;;;5031941;28;20050;-70
2022/10/30 04:13:42;;;;;;;116.97;62.42;;;10.60;99.90;;;;;;5013282;28;20033;-70
2022/10/30 04:16:08;;;;;;;96.90;54.97;;;10.70;99.90;;;;;;5027120;28;20037;-70
2022/10/30 04:18:34;;;;;;;195.73;80.28;;;10.60;99.90;;;;;;5011238;28;20022;-72
2022/10/30 04:21:00;;;;;;;92.13;56.13;;;10.50;99.90;;;;;;5026924;28;20124;-70
2022/10/30 04:23:26;;;;;;;95.35;58.13;;;10.50;99.90;;;;;;5010201;28;20037;-71
2022/10/30 04:25:54;;;;;;;331.38;104.05;;;10.40;99.90;;;;;;5030582;28;20025;-70
2022/10/30 04:28:20;;;;;;;212.32;79.55;;;10.50;99.90;;;;;;5010143;28;20068;-70
2022/10/30 04:30:46;;;;;;;97.82;52.95;;;10.40;99.90;;;;;;5011403;28;20022;-70
2022/10/30 04:33:14;;;;;;;78.78;49.30;;;10.40;99.90;;;;;;5010061;28;20029;-71
2022/10/30 04:35:42;;;;;;;131.68;58.75;;;10.40;99.90;;;;;;5026346;28;20037;-71
2022/10/30 04:38:13;;;;;;;76.88;47.97;;;10.40;99.90;;;;;;5014281;28;20049;-70
2022/10/30 04:40:42;;;;;;;136.95;58.92;;;10.30;99.90;;;;;;5026414;28;20037;-70
2022/10/30 04:43:08;;;;;;;81.78;49.72;;;10.20;99.90;;;;;;5013839;28;20030;-71
2022/10/30 04:45:36;;;;;;;102.15;53.20;;;10.20;99.90;;;;;;5026150;28;20065;-71
2022/10/30 04:48:12;;;;;;;167.13;68.18;;;10.10;99.90;;;;;;5025898;28;20468;-70
2022/10/30 04:50:38;;;;;;;165.32;68.10;;;10.00;99.90;;;;;;5026278;28;20029;-71
2022/10/30 04:53:15;;;;;;;110.90;55.97;;;9.90;99.90;;;;;;5010394;28;20361;-71
2022/10/30 04:55:43;;;;;;;70.75;45.88;;;9.90;99.90;;;;;;5023260;28;20091;-69
2022/10/30 04:58:11;;;;;;;73.97;44.72;;;10.00;99.90;;;;;;5009524;28;20598;-71
2022/10/30 05:00:39;;;;;;;69.65;42.75;;;9.90;99.90;;;;;;5026019;28;20042;-70
2022/10/30 05:03:24;;;;;;;83.90;49.50;;;9.90;99.90;;;;;;5012581;28;20037;-70
2022/10/30 05:06:03;;;;;;;87.80;45.90;;;9.90;99.90;;;;;;5025546;28;20041;-71
2022/10/30 05:08:29;;;;;;;58.65;39.45;;;9.80;99.90;;;;;;5010559;28;20022;-71
2022/10/30 05:10:56;;;;;;;60.35;40.72;;;9.90;99.90;;;;;;5024954;28;20451;-70
2022/10/30 05:13:22;;;;;;;63.05;41.67;;;9.90;99.90;;;;;;5025097;28;20026;-70
2022/10/30 05:15:47;;;;;;;88.72;44.28;;;10.00;99.90;;;;;;5009453;28;20191;-71
2022/10/30 05:18:14;;;;;;;60.97;41.35;;;10.00;99.90;;;;;;5025579;28;20072;-70
2022/10/30 05:20:40;;;;;;;69.20;43.65;;;10.00;99.90;;;;;;5008617;28;20113;-71
2022/10/30 05:23:08;;;;;;;71.10;44.33;;;10.00;99.90;;;;;;5025222;28;20476;-70
2022/10/30 05:25:34;;;;;;;51.83;40.70;;;9.90;99.90;;;;;;5009094;28;20018;-71
2022/10/30 05:28:05;;;;;;;57.33;40.85;;;10.00;99.90;;;;;;5025341;28;20080;-71
2022/10/30 05:30:37;;;;;;;57.25;41.58;;;9.90;99.90;;;;;;5009680;28;20368;-70
2022/10/30 05:33:10;;;;;;;59.15;40.40;;;10.00;99.90;;;;;;5029307;28;20119;-71
2022/10/30 05:35:36;;;;;;;57.88;40.80;;;10.00;99.90;;;;;;5029143;28;20391;-71
2022/10/30 05:38:05;;;;;;;61.22;41.13;;;10.10;99.90;;;;;;5016094;28;20117;-71
2022/10/30 05:40:33;;;;;;;52.97;39.67;;;10.10;99.90;;;;;;5013259;28;20037;-70
2022/10/30 05:42:58;;;;;;;53.33;38.85;;;10.00;99.90;;;;;;5012261;28;20456;-71
2022/10/30 05:45:25;;;;;;;48.30;36.80;;;10.00;99.90;;;;;;5021315;28;20103;-70
2022/10/30 05:47:54;;;;;;;58.55;41.15;;;10.10;99.90;;;;;;5010198;28;20131;-71
2022/10/30 05:50:21;;;;;;;50.17;38.25;;;10.00;99.90;;;;;;5029583;28;20026;-71
2022/10/30 05:53:04;;;;;;;49.45;36.15;;;10.10;99.90;;;;;;5014201;28;20014;-70
2022/10/30 05:55:30;;;;;;;54.40;37.35;;;10.20;99.90;;;;;;5012753;28;20072;-71
2022/10/30 05:58:06;;;;;;;55.05;36.38;;;10.20;99.90;;;;;;5029100;28;20026;-70
2022/10/30 06:00:35;;;;;;;49.78;35.88;;;10.20;99.90;;;;;;5029118;28;20084;-70
2022/10/30 06:03:07;;;;;;;47.97;35.97;;;10.20;99.90;;;;;;5014395;28;20117;-69
2022/10/30 06:05:36;;;;;;;45.17;37.13;;;10.20;99.90;;;;;;5030461;28;20030;-72
2022/10/30 06:08:04;;;;;;;63.50;38.10;;;10.20;99.90;;;;;;5026019;28;20049;-70
2022/10/30 06:10:32;;;;;;;40.67;31.45;;;10.10;99.90;;;;;;5028410;28;20049;-71
2022/10/30 06:13:09;;;;;;;48.50;33.10;;;10.20;99.90;;;;;;5022893;28;20030;-76
2022/10/30 06:15:45;;;;;;;53.03;34.60;;;10.20;99.90;;;;;;5019009;28;20056;-70
2022/10/30 06:18:11;;;;;;;51.05;37.75;;;10.20;99.90;;;;;;5023252;28;20030;-71
2022/10/30 06:20:43;;;;;;;52.53;36.83;;;10.10;99.90;;;;;;5024796;28;20048;-73
2022/10/30 06:23:29;;;;;;;46.65;35.47;;;10.10;99.90;;;;;;5023322;28;20065;-71
2022/10/30 06:26:03;;;;;;;67.68;40.95;;;10.20;99.90;;;;;;5024716;28;20049;-73
2022/10/30 06:28:33;;;;;;;64.97;38.92;;;10.30;99.90;;;;;;5026425;28;20029;-71
2022/10/30 06:30:59;;;;;;;72.95;40.65;;;10.40;99.90;;;;;;5024194;28;20037;-71
2022/10/30 06:33:25;;;;;;;82.82;41.13;;;10.40;99.90;;;;;;5022901;28;20033;-70
2022/10/30 06:35:51;;;;;;;86.82;43.13;;;10.50;99.90;;;;;;5026711;28;20037;-73
2022/10/30 06:38:18;;;;;;;63.88;40.38;;;10.50;99.90;;;;;;5026401;28;20032;-71
2022/10/30 06:40:47;;;;;;;70.93;43.08;;;10.60;99.90;;;;;;5012577;28;20044;-70
2022/10/30 06:43:29;;;;;;;68.45;40.78;;;10.60;99.90;;;;;;5021546;28;20394;-75
2022/10/30 06:45:57;;;;;;;69.95;38.95;;;10.60;99.90;;;;;;5022700;28;20049;-70
2022/10/30 06:48:23;;;;;;;58.90;41.25;;;10.60;99.90;;;;;;5007385;28;20067;-72
2022/10/30 06:50:57;;;;;;;67.22;42.65;;;10.70;99.90;;;;;;5050096;28;20108;-75
2022/10/30 06:53:25;;;;;;;82.82;48.30;;;10.80;99.90;;;;;;5042071;28;20030;-71
2022/10/30 06:55:58;;;;;;;59.28;42.63;;;10.70;99.90;;;;;;5024476;28;20037;-72
2022/10/30 06:58:42;;;;;;;65.53;44.60;;;10.80;99.90;;;;;;5028053;28;20034;-72
2022/10/30 07:01:31;;;;;;;80.72;38.85;;;10.80;99.90;;;;;;5027666;28;20057;-70
2022/10/30 07:04:17;;;;;;;76.88;41.25;;;10.70;99.90;;;;;;5026878;28;20032;-70
2022/10/30 07:06:43;;;;;;;66.97;39.40;;;10.40;99.90;;;;;;5023688;28;20028;-70
2022/10/30 07:09:09;;;;;;;66.32;36.20;;;10.40;99.90;;;;;;5020166;28;20049;-72
2022/10/30 07:11:39;;;;;;;61.10;34.60;;;10.50;99.90;;;;;;5023052;28;20416;-70
2022/10/30 07:14:34;;;;;;;61.35;34.10;;;10.60;99.90;;;;;;5021411;28;20136;-71
2022/10/30 07:17:26;;;;;;;47.75;33.35;;;10.70;99.90;;;;;;5025151;28;20034;-70
2022/10/30 07:19:57;;;;;;;51.00;34.95;;;10.90;99.90;;;;;;5023309;28;20028;-72
2022/10/30 07:22:23;;;;;;;43.63;32.10;;;11.10;99.90;;;;;;5037530;28;20038;-70
2022/10/30 07:24:52;;;;;;;47.60;33.40;;;11.20;99.90;;;;;;5020613;28;20030;-70
2022/10/30 07:27:49;;;;;;;43.85;33.65;;;11.50;99.90;;;;;;4988425;28;20058;-70
2022/10/30 07:30:47;;;;;;;51.50;34.10;;;11.90;99.90;;;;;;4944197;29;20516;-70
2022/10/30 07:33:39;;;;;;;46.97;33.08;;;12.20;99.90;;;;;;4943167;29;20081;-77
2022/10/30 07:36:23;;;;;;;47.72;33.05;;;12.20;99.90;;;;;;4944301;28;20042;-70
2022/10/30 07:38:51;;;;;;;43.50;33.80;;;12.40;99.90;;;;;;4925218;29;20043;-70
2022/10/30 07:41:34;;;;;;;53.23;39.80;;;12.50;99.90;;;;;;4945829;28;20047;-74
2022/10/30 07:44:18;;;;;;;56.47;40.55;;;12.60;99.90;;;;;;4942320;28;20276;-71
2022/10/30 07:47:02;;;;;;;58.53;42.67;;;12.40;99.90;;;;;;4943802;28;20042;-70
2022/10/30 07:49:49;;;;;;;51.90;38.78;;;12.50;99.90;;;;;;4924526;29;20039;-74
2022/10/30 07:52:16;;;;;;;49.20;35.25;;;12.50;99.90;;;;;;4927714;29;20126;-71
2022/10/30 07:54:42;;;;;;;48.58;35.15;;;12.40;99.90;;;;;;4924180;29;20031;-70
2022/10/30 07:57:24;;;;;;;49.60;37.00;;;12.40;99.90;;;;;;4926378;29;20050;-70
2022/10/30 08:00:11;;;;;;;49.17;38.67;;;12.40;99.90;;;;;;4943148;29;20123;-69
2022/10/30 08:02:40;;;;;;;51.70;37.28;;;12.50;99.90;;;;;;4945280;29;20075;-70
2022/10/30 08:05:36;;;;;;;50.67;37.67;;;12.50;99.90;;;;;;4982133;28;20025;-70
2022/10/30 08:12:43;;;;;;;57.05;38.10;;;12.50;99.90;;;;;;5037097;28;20050;-70
2022/10/30 08:19:36;;;;;;;50.53;37.60;;;12.70;99.90;;;;;;5019714;28;20018;-72
2022/10/30 08:22:27;;;;;;;49.17;36.95;;;12.60;99.90;;;;;;5035353;28;20034;-72
2022/10/30 08:28:44;;;;;;;52.00;38.50;;;12.60;99.90;;;;;;5022071;28;20090;-75
2022/10/30 08:31:11;;;;;;;52.20;38.30;;;12.60;99.90;;;;;;5026873;28;20398;-71
2022/10/30 08:34:15;;;;;;;53.00;38.05;;;12.70;99.90;;;;;;4968611;28;20500;-72
2022/10/30 08:36:54;;;;;;;52.92;39.75;;;12.80;99.90;;;;;;4966727;28;20050;-75
2022/10/30 08:39:21;;;;;;;54.65;40.10;;;12.90;99.90;;;;;;4968302;28;20047;-71
2022/10/30 08:41:53;;;;;;;53.03;40.43;;;13.20;99.90;;;;;;4968744;28;20046;-70
2022/10/30 08:44:21;;;;;;;51.83;41.45;;;13.50;99.90;;;;;;4952445;28;20055;-71
2022/10/30 08:47:05;;;;;;;53.85;39.65;;;13.60;99.90;;;;;;4968560;28;20121;-70
2022/10/30 08:49:31;;;;;;;56.65;41.35;;;13.70;99.90;;;;;;4968320;28;20086;-70
2022/10/30 08:51:59;;;;;;;55.78;42.33;;;13.90;99.90;;;;;;4942880;28;20419;-70
2022/10/30 08:54:25;;;;;;;53.15;41.67;;;14.00;99.90;;;;;;4968601;28;20054;-74
2022/10/30 08:56:52;;;;;;;48.45;38.35;;;14.20;99.90;;;;;;4968542;28;20049;-70
2022/10/30 08:59:18;;;;;;;52.05;39.50;;;14.40;99.90;;;;;;4968176;28;20537;-72
2022/10/30 09:01:46;;;;;;;49.47;37.55;;;14.40;99.90;;;;;;4952005;28;20034;-74
2022/10/30 09:04:18;;;;;;;43.70;35.05;;;14.20;99.90;;;;;;4977291;28;20049;-72
2022/10/30 09:06:44;;;;;;;47.30;36.58;;;14.40;99.90;;;;;;5011253;28;20046;-71
2022/10/30 09:09:42;;;;;;;50.17;38.03;;;14.40;99.90;;;;;;4987352;28;20150;-70
2022/10/30 09:12:08;;;;;;;48.53;37.78;;;14.50;99.90;;;;;;4987342;28;20084;-73
2022/10/30 09:14:43;;;;;;;49.63;37.95;;;14.60;99.90;;;;;;4965480;28;20082;-76
2022/10/30 09:17:10;;;;;;;49.42;35.95;;;14.70;99.90;;;;;;4966793;28;20027;-80
2022/10/30 09:19:38;;;;;;;44.35;34.63;;;14.70;99.90;;;;;;4976901;28;20534;-72
2022/10/30 09:22:05;;;;;;;48.45;37.90;;;14.80;99.90;;;;;;4988193;28;20061;-72
2022/10/30 09:24:32;;;;;;;45.40;34.80;;;15.00;99.90;;;;;;4970479;28;20755;-72
2022/10/30 09:26:58;;;;;;;48.47;36.33;;;15.10;99.90;;;;;;4987230;28;20034;-71
2022/10/30 09:29:25;;;;;;;42.78;33.88;;;15.40;99.90;;;;;;4986822;28;20121;-79
2022/10/30 09:32:14;;;;;;;41.47;33.22;;;15.50;99.90;;;;;;4990533;28;20035;-72
2022/10/30 09:34:51;;;;;;;37.83;29.85;;;15.70;99.90;;;;;;4971793;28;20424;-78
2022/10/30 09:37:26;;;;;;;42.05;30.98;;;15.70;99.90;;;;;;4971774;28;20030;-73
2022/10/30 09:39:57;;;;;;;37.05;30.88;;;15.80;99.90;;;;;;4988099;28;20580;-73
2022/10/30 09:42:23;;;;;;;45.38;35.08;;;15.70;99.90;;;;;;4975912;28;20125;-72
2022/10/30 09:45:30;;;;;;;41.33;32.22;;;15.90;99.90;;;;;;4988415;28;20034;-73
2022/10/30 09:48:00;;;;;;;40.55;32.55;;;15.90;99.90;;;;;;5012343;28;20022;-75
2022/10/30 09:50:54;;;;;;;38.17;30.73;;;16.00;99.90;;;;;;5020371;28;20026;-72
2022/10/30 09:53:48;;;;;;;41.15;29.10;;;16.10;99.90;;;;;;5027022;28;20858;-71
2022/10/30 09:56:28;;;;;;;36.95;30.77;;;16.30;99.90;;;;;;5034189;28;20173;-71
2022/10/30 09:59:03;;;;;;;39.85;31.98;;;16.40;99.90;;;;;;5012094;28;20029;-71
2022/10/30 10:01:42;;;;;;;41.28;31.13;;;16.40;99.90;;;;;;5031624;28;20463;-77
2022/10/30 10:04:37;;;;;;;35.78;30.63;;;16.50;99.90;;;;;;5014342;28;20026;-73
2022/10/30 10:07:26;;;;;;;42.17;32.10;;;16.70;99.90;;;;;;5014804;28;20041;-74
2022/10/30 10:10:02;;;;;;;41.05;32.85;;;16.80;99.90;;;;;;4992465;28;20025;-71
2022/10/30 10:12:55;;;;;;;40.97;32.63;;;17.00;99.90;;;;;;5008721;28;20373;-78
2022/10/30 10:15:42;;;;;;;39.55;32.20;;;17.00;99.90;;;;;;5009369;28;20033;-73
2022/10/30 10:18:42;;;;;;;45.05;33.65;;;17.10;99.90;;;;;;5011816;28;20467;-75
2022/10/30 10:21:28;;;;;;;40.45;33.13;;;17.20;99.90;;;;;;5012817;28;20679;-79
2022/10/30 10:24:01;;;;;;;41.15;33.78;;;17.20;99.90;;;;;;5017321;28;20100;-78
2022/10/30 10:26:35;;;;;;;;;;;17.10;99.90;;;;;;5016456;28;20053;-74
2022/10/30 10:29:19;;;;;;;40.55;30.80;;;17.30;99.90;;;;;;5016043;28;19914;-74
2022/10/30 10:32:18;;;;;;;42.75;32.22;;;17.40;99.90;;;;;;5013581;28;20029;-75
2022/10/30 10:34:50;;;;;;;38.03;32.65;;;17.50;99.90;;;;;;5013686;28;20077;-74
2022/10/30 10:37:44;;;;;;;42.63;33.30;;;17.60;99.90;;;;;;5014430;28;20076;-71
2022/10/30 10:40:22;;;;;;;43.90;34.30;;;17.60;99.90;;;;;;5013113;28;20034;-71
2022/10/30 10:42:54;;;;;;;39.45;31.98;;;17.60;99.90;;;;;;5017165;28;20088;-72
2022/10/30 10:45:53;;;;;;;39.85;31.33;;;17.60;99.90;;;;;;5014203;28;20053;-76
2022/10/30 10:48:31;;;;;;;36.78;29.90;;;17.70;99.90;;;;;;5013189;28;20364;-71
2022/10/30 10:51:15;;;;;;;37.83;30.35;;;17.80;99.90;;;;;;5013611;28;20033;-71
2022/10/30 10:53:56;;;;;;;43.85;33.60;;;17.90;99.90;;;;;;5012925;28;20025;-72
2022/10/30 10:56:30;;;;;;;39.07;31.77;;;18.00;99.90;;;;;;5019697;28;20053;-71
2022/10/30 10:59:04;;;;;;;38.28;31.63;;;18.00;99.90;;;;;;5017819;28;20487;-74
2022/10/30 11:01:55;;;;;;;40.22;31.90;;;18.10;99.90;;;;;;5017608;28;20135;-75
2022/10/30 11:04:48;;;;;;;43.25;32.47;;;18.10;99.90;;;;;;5020239;28;20022;-73
2022/10/30 11:07:21;;;;;;;43.95;33.67;;;18.20;99.90;;;;;;5016270;28;20030;-69
2022/10/30 11:09:55;;;;;;;43.50;36.40;;;18.20;99.90;;;;;;5016169;28;20037;-72
2022/10/30 11:12:26;;;;;;;52.25;36.78;;;18.40;99.90;;;;;;5016094;28;20584;-71
2022/10/30 11:14:51;;;;;;;46.70;37.20;;;18.60;99.90;;;;;;5015911;28;20498;-73
2022/10/30 11:17:41;;;;;;;41.08;32.67;;;18.80;99.90;;;;;;5012503;28;20114;-76
2022/10/30 11:20:51;;;;;;;44.88;33.33;;;18.70;99.90;;;;;;5012690;28;20034;-76
2022/10/30 11:23:32;;;;;;;42.30;31.98;;;18.80;99.90;;;;;;4972767;28;20039;-72
2022/10/30 11:26:02;;;;;;;43.42;31.25;;;19.00;99.90;;;;;;4970545;28;20045;-70
2022/10/30 11:28:47;;;;;;;42.10;32.38;;;19.10;99.90;;;;;;4973627;28;20045;-71
2022/10/30 11:31:20;;;;;;;35.67;29.90;;;19.10;99.90;;;;;;4974761;28;20551;-69
2022/10/30 11:33:47;;;;;;;38.45;29.95;;;19.20;99.90;;;;;;4970774;28;20038;-72
2022/10/30 11:36:20;;;;;;;36.50;29.77;;;19.20;99.90;;;;;;4971824;28;20033;-73
2022/10/30 11:38:46;;;;;;;38.33;32.55;;;19.30;99.90;;;;;;4974742;28;20043;-70
2022/10/30 11:41:13;;;;;;;40.30;35.10;;;19.20;99.90;;;;;;4975210;28;20041;-69
2022/10/30 11:43:40;;;;;;;43.70;32.92;;;19.20;99.90;;;;;;4991056;28;20149;-73
2022/10/30 11:46:09;;;;;;;43.95;31.77;;;19.30;99.90;;;;;;4991403;28;20465;-74
2022/10/30 11:48:43;;;;;;;47.22;36.13;;;19.30;99.90;;;;;;4991207;28;20030;-70
2022/10/30 11:51:10;;;;;;;52.80;39.65;;;19.30;99.90;;;;;;4991307;28;20037;-70
2022/10/30 11:53:49;;;;;;;56.90;38.22;;;19.40;99.90;;;;;;4990742;28;20085;-71
2022/10/30 11:56:21;;;;;;;49.40;36.13;;;19.30;99.90;;;;;;4997537;28;20425;-71
2022/10/30 11:58:51;;;;;;;47.53;38.42;;;19.50;99.90;;;;;;5046374;28;20029;-81
2022/10/30 12:01:23;;;;;;;49.78;36.60;;;19.50;99.90;;;;;;5050609;28;20032;-70
2022/10/30 12:03:49;;;;;;;;;;;19.60;99.90;;;;;;5022254;28;20117;-71
2022/10/30 12:06:26;;;;;;;53.08;43.80;;;19.70;99.90;;;;;;5038036;28;19957;-72
2022/10/30 12:09:01;;;;;;;39.45;31.50;;;19.70;99.90;;;;;;5046173;28;20034;-75
2022/10/30 12:11:30;;;;;;;36.00;30.15;;;19.60;99.90;;;;;;5026702;28;20037;-72
2022/10/30 12:13:57;;;;;;;42.00;30.00;;;19.70;99.90;;;;;;5052196;28;20049;-77
2022/10/30 12:16:23;;;;;;;36.10;29.23;;;19.60;99.90;;;;;;5036043;28;20022;-76
2022/10/30 12:19:00;;;;;;;37.65;30.10;;;19.70;99.90;;;;;;5027160;28;20041;-72
2022/10/30 12:21:28;;;;;;;40.42;30.15;;;19.70;99.90;;;;;;5035665;28;20036;-71
2022/10/30 12:24:00;;;;;;;40.00;30.10;;;19.80;99.90;;;;;;5049757;28;20025;-80
2022/10/30 12:26:28;;;;;;;38.38;30.48;;;19.90;99.90;;;;;;5033137;28;20079;-80
2022/10/30 12:29:00;;;;;;;36.17;27.75;;;19.90;99.90;;;;;;5033106;28;20041;-82
2022/10/30 12:31:37;;;;;;;36.80;27.33;;;20.00;99.90;;;;;;5022158;28;20033;-83
2022/10/30 12:34:06;;;;;;;36.30;27.27;;;19.90;99.90;;;;;;5016497;28;20021;-71
2022/10/30 12:36:41;;;;;;;34.63;25.73;;;20.00;99.90;;;;;;5015169;28;20336;-72
2022/10/30 12:39:34;;;;;;;36.42;28.00;;;20.10;99.90;;;;;;5017576;28;20021;-73
2022/10/30 12:42:22;;;;;;;41.63;28.90;;;20.10;99.90;;;;;;4986793;28;20153;-80
2022/10/30 12:45:11;;;;;;;34.92;28.05;;;20.10;99.90;;;;;;4977731;28;20026;-75
2022/10/30 12:47:56;;;;;;;36.95;27.27;;;20.10;99.90;;;;;;4987736;28;20042;-71
2022/10/30 12:50:44;;;;;;;32.72;27.45;;;20.10;99.90;;;;;;4988611;28;20035;-72
2022/10/30 12:53:25;;;;;;;41.88;28.55;;;20.10;99.90;;;;;;4989208;28;20100;-72
2022/10/30 12:55:59;;;;;;;47.33;27.43;;;20.00;99.90;;;;;;4989379;28;20030;-80
2022/10/30 12:58:36;;;;;;;34.95;27.65;;;20.10;99.90;;;;;;4989466;28;20022;-72
2022/10/30 13:01:25;;;;;;;35.97;27.48;;;20.10;99.90;;;;;;4986482;28;20045;-75
2022/10/30 13:04:08;;;;;;;29.73;22.98;;;20.10;99.90;;;;;;4989743;28;20034;-71
2022/10/30 13:07:07;;;;;;;28.10;21.70;;;20.10;99.90;;;;;;4988300;28;20046;-76
2022/10/30 13:10:01;;;;;;;27.83;21.17;;;20.20;99.90;;;;;;4989210;28;20034;-71